Time;durP1;ratioP1;P1;durP2;ratioP2;P2;SDS_P1;SDS_P2;PMS_P1;PMS_P2;Temp;Humidity;BMP_temperature;BMP_pressure;BME280_temperature;BME280_humidity;BME280_pressure;Samples;Min_cycle;Max_cycle;Signal;HPM_P1;HPM_P2
2021/06/14 00:01:18;;;;;;;3.15;0.98;;;17.80;71.70;;;;;;5056313;28;20016;-88
2021/06/14 00:03:44;;;;;;;3.13;1.05;;;17.80;71.00;;;;;;5091247;28;20082;-88
2021/06/14 00:06:09;;;;;;;3.83;0.85;;;17.80;72.60;;;;;;5080597;28;20115;-88
2021/06/14 00:08:40;;;;;;;2.60;1.05;;;17.80;72.40;;;;;;5071739;28;20315;-87
2021/06/14 00:11:09;;;;;;;3.13;0.90;;;17.80;72.00;;;;;;5053610;28;20485;-88
2021/06/14 00:13:36;;;;;;;3.03;1.05;;;17.90;71.40;;;;;;5070407;28;20052;-88
2021/06/14 00:16:03;;;;;;;3.00;1.25;;;17.70;71.50;;;;;;5071440;28;20095;-87
2021/06/14 00:18:29;;;;;;;3.28;0.93;;;17.70;71.50;;;;;;5071465;28;20021;-87
2021/06/14 00:20:57;;;;;;;4.20;1.30;;;17.60;72.20;;;;;;5070219;28;20029;-88
2021/06/14 00:23:26;;;;;;;3.80;1.10;;;17.60;72.90;;;;;;5068854;28;20032;-88
2021/06/14 00:25:52;;;;;;;6.25;1.17;;;17.60;73.40;;;;;;5069927;28;20024;-88
2021/06/14 00:28:18;;;;;;;2.90;0.85;;;17.70;73.30;;;;;;5069917;28;20036;-87
2021/06/14 00:30:46;;;;;;;3.25;0.70;;;17.60;72.90;;;;;;5069768;28;20551;-87
2021/06/14 00:33:13;;;;;;;4.78;1.13;;;17.60;73.00;;;;;;5070248;28;20024;-87
2021/06/14 00:35:39;;;;;;;2.75;1.10;;;17.60;73.00;;;;;;5070869;28;20025;-87
2021/06/14 00:38:05;;;;;;;3.20;1.10;;;17.50;73.50;;;;;;5069770;28;20055;-87
2021/06/14 00:40:31;;;;;;;3.38;1.33;;;17.50;74.10;;;;;;5069833;28;20025;-88
2021/06/14 00:42:58;;;;;;;3.38;1.40;;;17.50;74.80;;;;;;5070574;28;20174;-88
2021/06/14 00:45:29;;;;;;;2.75;1.08;;;17.70;75.00;;;;;;5069307;28;20024;-89
2021/06/14 00:47:55;;;;;;;4.70;1.27;;;17.30;75.30;;;;;;5069950;28;20028;-88
2021/06/14 00:50:36;;;;;;;3.25;1.15;;;17.30;75.50;;;;;;5069746;28;20136;-88
2021/06/14 00:53:03;;;;;;;1.85;0.90;;;17.20;75.00;;;;;;5085978;22;20519;-81
2021/06/14 00:55:29;;;;;;;2.88;1.15;;;17.10;75.30;;;;;;5072505;28;20027;-82
2021/06/14 00:57:55;;;;;;;2.63;1.00;;;17.10;75.60;;;;;;5069901;28;20468;-81
2021/06/14 01:00:21;;;;;;;2.95;1.10;;;17.10;76.40;;;;;;5055111;28;20052;-81
2021/06/14 01:02:47;;;;;;;3.10;1.17;;;17.00;76.60;;;;;;5071829;28;20028;-82
2021/06/14 01:05:14;;;;;;;3.45;1.30;;;17.00;76.40;;;;;;5054775;28;20512;-82
2021/06/14 01:07:40;;;;;;;2.17;1.20;;;17.00;76.40;;;;;;5076329;28;20115;-81
2021/06/14 01:10:07;;;;;;;3.15;1.17;;;16.90;76.60;;;;;;5060718;28;20106;-81
2021/06/14 01:12:47;;;;;;;4.97;1.20;;;16.90;77.00;;;;;;5055397;28;20355;-81
2021/06/14 01:15:16;;;;;;;2.65;1.13;;;16.90;77.20;;;;;;5074146;28;20100;-82
2021/06/14 01:17:59;;;;;;;3.72;1.10;;;16.80;77.40;;;;;;5062116;28;20021;-81
2021/06/14 01:20:33;;;;;;;3.97;1.50;;;16.80;77.80;;;;;;5054658;28;20033;-82
2021/06/14 01:23:12;;;;;;;2.97;1.02;;;16.70;77.80;;;;;;5070592;28;20021;-81
2021/06/14 01:25:41;;;;;;;2.42;1.20;;;16.80;78.30;;;;;;5065384;28;20049;-82
2021/06/14 01:28:08;;;;;;;3.72;1.20;;;16.70;79.00;;;;;;5054113;28;20036;-81
2021/06/14 01:30:36;;;;;;;4.03;1.00;;;16.70;79.30;;;;;;5053674;28;20032;-82
2021/06/14 01:33:06;;;;;;;3.28;1.20;;;16.70;78.90;;;;;;5054172;28;20029;-82
2021/06/14 01:35:36;;;;;;;3.83;1.02;;;16.60;79.00;;;;;;5073462;28;20029;-82
2021/06/14 01:38:02;;;;;;;4.53;1.23;;;16.60;79.80;;;;;;5074311;28;20031;-83
2021/06/14 01:40:29;;;;;;;3.60;1.55;;;16.50;79.80;;;;;;5075059;28;20054;-82
2021/06/14 01:42:58;;;;;;;3.30;1.42;;;16.50;80.20;;;;;;5068983;28;20032;-82
2021/06/14 01:45:26;;;;;;;4.28;1.58;;;16.50;80.10;;;;;;5052004;28;20033;-82
2021/06/14 01:47:52;;;;;;;3.13;1.20;;;16.40;80.30;;;;;;5054172;28;20025;-81
2021/06/14 01:50:19;;;;;;;3.50;1.30;;;16.40;80.80;;;;;;5056704;28;20116;-82
2021/06/14 01:52:45;;;;;;;3.92;1.30;;;16.40;80.60;;;;;;5057998;28;20053;-81
2021/06/14 01:55:14;;;;;;;4.55;1.67;;;16.40;81.00;;;;;;5057979;28;20370;-81
2021/06/14 01:57:41;;;;;;;4.32;1.13;;;16.30;80.70;;;;;;5057606;28;20127;-82
2021/06/14 02:00:08;;;;;;;3.53;1.45;;;16.30;81.20;;;;;;5056563;28;20025;-82
2021/06/14 02:02:34;;;;;;;5.93;1.50;;;16.20;81.60;;;;;;5056865;28;20024;-82
2021/06/14 02:05:01;;;;;;;3.35;1.40;;;16.10;81.80;;;;;;5056740;28;20025;-82
2021/06/14 02:07:27;;;;;;;5.00;1.63;;;16.00;82.20;;;;;;5038624;28;20072;-82
2021/06/14 02:09:55;;;;;;;3.22;1.50;;;15.90;82.60;;;;;;5056608;28;20032;-81
2021/06/14 02:12:21;;;;;;;3.88;1.40;;;15.90;83.00;;;;;;5058002;28;20091;-81
2021/06/14 02:14:47;;;;;;;5.50;2.03;;;15.90;83.90;;;;;;5076867;28;20032;-81
2021/06/14 02:17:19;;;;;;;2.50;1.15;;;15.90;83.70;;;;;;5077223;28;20024;-81
2021/06/14 02:19:47;;;;;;;3.40;1.25;;;15.90;83.60;;;;;;5054652;28;20035;-82
2021/06/14 02:22:14;;;;;;;4.43;1.30;;;15.90;83.70;;;;;;5055798;28;20091;-82
2021/06/14 02:24:41;;;;;;;3.95;1.70;;;15.90;83.80;;;;;;5056987;28;20076;-82
2021/06/14 02:27:09;;;;;;;4.28;1.48;;;15.90;83.70;;;;;;5056643;28;20112;-81
2021/06/14 02:29:35;;;;;;;3.28;1.40;;;15.90;83.00;;;;;;5038361;28;20477;-82
2021/06/14 02:32:00;;;;;;;3.22;1.27;;;16.00;82.00;;;;;;5070698;28;20044;-81
2021/06/14 02:34:26;;;;;;;3.05;1.23;;;16.00;81.60;;;;;;5082601;28;20060;-82
2021/06/14 02:36:54;;;;;;;4.03;1.20;;;16.00;81.70;;;;;;5055421;28;20036;-81
2021/06/14 02:39:24;;;;;;;3.00;1.15;;;16.00;83.00;;;;;;5059443;28;20039;-81
2021/06/14 02:41:51;;;;;;;3.30;1.60;;;16.00;84.10;;;;;;5076743;28;20025;-80
2021/06/14 02:44:17;;;;;;;3.88;1.30;;;15.90;84.30;;;;;;5075893;28;20070;-80
2021/06/14 02:46:43;;;;;;;3.22;1.25;;;15.90;84.00;;;;;;5063129;28;20029;-81
2021/06/14 02:49:14;;;;;;;2.92;1.77;;;15.80;84.30;;;;;;5052205;28;20021;-81
2021/06/14 02:51:41;;;;;;;4.13;1.40;;;15.80;84.50;;;;;;5057861;28;20858;-80
2021/06/14 02:54:14;;;;;;;4.25;1.63;;;15.70;84.20;;;;;;5076077;28;20520;-81
2021/06/14 02:56:41;;;;;;;3.67;1.38;;;15.70;84.10;;;;;;5054528;28;20812;-81
2021/06/14 02:59:10;;;;;;;3.85;1.27;;;15.70;84.00;;;;;;5054933;28;20020;-81
2021/06/14 03:01:37;;;;;;;5.97;1.55;;;15.70;84.40;;;;;;5054403;28;20108;-81
2021/06/14 03:04:04;;;;;;;2.83;1.27;;;15.70;84.30;;;;;;5038524;28;20148;-80
2021/06/14 03:06:30;;;;;;;5.85;1.33;;;15.70;84.40;;;;;;5071919;28;20035;-81
2021/06/14 03:08:57;;;;;;;3.53;1.10;;;15.70;84.00;;;;;;5076429;28;20048;-81
2021/06/14 03:11:26;;;;;;;4.63;1.75;;;15.70;84.10;;;;;;5076265;28;20036;-81
2021/06/14 03:13:53;;;;;;;3.35;1.35;;;15.70;84.70;;;;;;5062093;28;20029;-80
2021/06/14 03:16:22;;;;;;;5.20;1.50;;;15.70;85.10;;;;;;5056232;28;20013;-80
2021/06/14 03:18:49;;;;;;;4.10;1.17;;;15.60;85.20;;;;;;5056153;28;20025;-81
2021/06/14 03:21:16;;;;;;;5.03;1.45;;;15.60;85.10;;;;;;5038399;28;20053;-80
2021/06/14 03:23:42;;;;;;;4.25;1.50;;;15.60;85.30;;;;;;5055298;28;20044;-80
2021/06/14 03:26:12;;;;;;;3.58;1.30;;;15.60;85.40;;;;;;5054284;28;20040;-81
2021/06/14 03:28:41;;;;;;;3.88;1.65;;;15.50;85.70;;;;;;5054435;28;20115;-81
2021/06/14 03:31:07;;;;;;;5.07;1.42;;;15.50;87.10;;;;;;5056145;28;20416;-80
2021/06/14 03:33:33;;;;;;;3.72;1.60;;;15.50;87.10;;;;;;5059604;28;20386;-80
2021/06/14 03:35:59;;;;;;;3.63;1.25;;;15.50;87.80;;;;;;5057242;28;20021;-80
2021/06/14 03:38:25;;;;;;;3.47;1.38;;;15.40;87.60;;;;;;5075050;28;20073;-80
2021/06/14 03:40:51;;;;;;;4.95;1.25;;;15.40;86.40;;;;;;5055374;28;20055;-80
2021/06/14 03:43:17;;;;;;;5.03;1.58;;;15.40;86.70;;;;;;5037725;28;20162;-80
2021/06/14 03:45:43;;;;;;;3.20;1.30;;;15.30;86.70;;;;;;5054938;28;20492;-81
2021/06/14 03:48:08;;;;;;;5.38;1.63;;;15.40;87.50;;;;;;5037019;28;20146;-81
2021/06/14 03:50:34;;;;;;;3.20;1.35;;;15.40;88.20;;;;;;5054892;28;20044;-81
2021/06/14 03:53:00;;;;;;;3.88;1.48;;;15.40;87.60;;;;;;5036427;28;20043;-80
2021/06/14 03:55:26;;;;;;;5.22;1.45;;;15.40;88.20;;;;;;5036096;28;20246;-81
2021/06/14 03:57:52;;;;;;;4.00;1.20;;;15.40;88.00;;;;;;5055201;28;20058;-81
2021/06/14 04:00:18;;;;;;;5.03;1.20;;;15.40;87.70;;;;;;5056621;28;20397;-80
2021/06/14 04:02:44;;;;;;;4.97;1.10;;;15.40;87.50;;;;;;5064739;28;20153;-80
2021/06/14 04:05:10;;;;;;;3.75;1.40;;;15.50;86.90;;;;;;5093271;28;20032;-80
2021/06/14 04:07:36;;;;;;;3.75;1.40;;;15.50;86.60;;;;;;5064453;28;20422;-80
2021/06/14 04:10:03;;;;;;;3.22;1.48;;;15.60;87.00;;;;;;5080096;28;20062;-80
2021/06/14 04:12:30;;;;;;;4.93;1.60;;;15.50;86.90;;;;;;5073502;28;20095;-80
2021/06/14 04:14:56;;;;;;;4.55;1.20;;;15.60;86.50;;;;;;5074642;28;20055;-80
2021/06/14 04:17:22;;;;;;;3.88;1.40;;;15.60;86.80;;;;;;5049721;28;20056;-80
2021/06/14 04:19:48;;;;;;;3.35;1.05;;;15.60;87.10;;;;;;5054913;28;20029;-80
2021/06/14 04:22:14;;;;;;;4.70;1.70;;;15.60;86.10;;;;;;5054403;28;20090;-80
2021/06/14 04:24:40;;;;;;;3.50;1.45;;;15.60;86.60;;;;;;5040759;28;20025;-80
2021/06/14 04:27:06;;;;;;;4.80;1.70;;;15.70;86.40;;;;;;5076107;28;20040;-80
2021/06/14 04:29:32;;;;;;;4.60;1.60;;;15.80;86.50;;;;;;5075298;28;20103;-81
2021/06/14 04:31:58;;;;;;;2.97;1.30;;;15.90;86.20;;;;;;5056286;28;20029;-81
2021/06/14 04:34:24;;;;;;;4.00;1.50;;;15.90;85.90;;;;;;5072539;28;20021;-80
2021/06/14 04:36:50;;;;;;;3.75;1.50;;;16.00;87.00;;;;;;5072850;28;20031;-80
2021/06/14 04:39:16;;;;;;;4.25;1.52;;;15.90;85.40;;;;;;5058528;28;20214;-81
2021/06/14 04:41:42;;;;;;;3.30;1.27;;;16.10;86.30;;;;;;5058390;28;20040;-81
2021/06/14 04:44:07;;;;;;;3.88;1.30;;;16.10;85.30;;;;;;5071685;28;20048;-81
2021/06/14 04:46:33;;;;;;;5.82;1.70;;;16.20;85.60;;;;;;5078051;28;20035;-81
2021/06/14 04:48:59;;;;;;;3.85;1.65;;;16.20;85.70;;;;;;5059541;28;20392;-81
2021/06/14 04:51:25;;;;;;;6.70;1.77;;;16.20;85.60;;;;;;5081050;28;20054;-81
2021/06/14 04:53:50;;;;;;;4.85;1.83;;;16.20;85.20;;;;;;5078667;28;20032;-81
2021/06/14 04:56:16;;;;;;;4.45;1.60;;;16.30;85.50;;;;;;5063996;28;20143;-81
2021/06/14 04:58:43;;;;;;;4.65;1.45;;;16.30;85.70;;;;;;5074070;28;20084;-81
2021/06/14 05:01:08;;;;;;;5.03;1.60;;;16.30;86.20;;;;;;5056084;28;20059;-81
2021/06/14 05:03:34;;;;;;;4.47;1.60;;;16.30;86.50;;;;;;5076073;28;20036;-81
2021/06/14 05:06:00;;;;;;;4.40;1.42;;;16.40;87.20;;;;;;5077660;28;20108;-81
2021/06/14 05:08:26;;;;;;;3.45;1.60;;;16.50;87.10;;;;;;5079258;28;20024;-81
2021/06/14 05:10:51;;;;;;;5.25;1.70;;;16.60;87.50;;;;;;5077279;28;20358;-81
2021/06/14 05:13:18;;;;;;;3.58;1.30;;;16.60;85.60;;;;;;5067491;28;20568;-79
2021/06/14 05:15:43;;;;;;;4.55;1.52;;;16.50;85.60;;;;;;5071494;28;20024;-79
2021/06/14 05:18:09;;;;;;;4.70;1.55;;;16.60;86.60;;;;;;5055134;28;20024;-80
2021/06/14 05:20:35;;;;;;;3.65;1.38;;;16.70;85.50;;;;;;5076870;28;20692;-80
2021/06/14 05:23:05;;;;;;;3.75;1.55;;;16.70;85.30;;;;;;5074912;28;20033;-80
2021/06/14 05:25:35;;;;;;;5.72;1.75;;;16.70;85.40;;;;;;5078884;28;20028;-80
2021/06/14 05:28:01;;;;;;;3.13;1.23;;;16.80;85.30;;;;;;5055973;28;20029;-82
2021/06/14 05:30:26;;;;;;;3.65;1.42;;;16.90;85.20;;;;;;5070427;28;20373;-82
2021/06/14 05:32:52;;;;;;;6.35;1.40;;;16.90;85.00;;;;;;5073632;28;20028;-82
2021/06/14 05:35:18;;;;;;;4.47;1.35;;;16.90;84.50;;;;;;5073213;28;20040;-81
2021/06/14 05:37:43;;;;;;;3.72;1.50;;;17.10;84.40;;;;;;5078427;28;20027;-82
2021/06/14 05:40:10;;;;;;;3.58;1.40;;;17.10;84.50;;;;;;5081858;28;20075;-80
2021/06/14 05:42:36;;;;;;;4.68;1.35;;;17.10;83.80;;;;;;5062304;28;20032;-80
2021/06/14 05:45:04;;;;;;;3.97;1.30;;;17.20;84.40;;;;;;5081994;28;20092;-81
2021/06/14 05:47:30;;;;;;;5.25;1.35;;;17.30;84.40;;;;;;5097477;28;20050;-80
2021/06/14 05:49:56;;;;;;;4.15;1.42;;;17.40;84.40;;;;;;5083683;28;20362;-80
2021/06/14 05:52:21;;;;;;;4.43;1.83;;;17.50;84.80;;;;;;5084818;28;20047;-80
2021/06/14 05:54:47;;;;;;;4.85;1.55;;;17.70;84.80;;;;;;5065804;28;20040;-80
2021/06/14 05:57:12;;;;;;;3.95;1.95;;;17.60;85.20;;;;;;5086116;28;20028;-80
2021/06/14 05:59:38;;;;;;;6.13;1.33;;;17.70;85.10;;;;;;5074335;28;20095;-80
2021/06/14 06:02:05;;;;;;;6.82;1.52;;;17.90;84.80;;;;;;5081436;28;20020;-80
2021/06/14 06:04:31;;;;;;;5.70;1.38;;;17.90;83.10;;;;;;5075936;28;20405;-80
2021/06/14 06:06:56;;;;;;;4.80;1.50;;;18.00;83.10;;;;;;5083934;28;20091;-80
2021/06/14 06:09:22;;;;;;;3.13;1.45;;;18.10;83.20;;;;;;5052040;28;20381;-80
2021/06/14 06:11:47;;;;;;;3.10;1.30;;;18.10;84.20;;;;;;5055856;28;20025;-80
2021/06/14 06:14:13;;;;;;;3.97;1.40;;;18.20;84.80;;;;;;5054810;28;20040;-81
2021/06/14 06:16:39;;;;;;;5.32;1.35;;;18.30;84.00;;;;;;5055483;28;20028;-80
2021/06/14 06:19:06;;;;;;;3.72;1.35;;;18.30;83.40;;;;;;5064959;28;20206;-80
2021/06/14 06:21:32;;;;;;;5.57;1.30;;;18.40;84.60;;;;;;5079197;28;20024;-81
2021/06/14 06:23:57;;;;;;;2.95;1.23;;;18.50;84.50;;;;;;5073439;28;20024;-80
2021/06/14 06:26:23;;;;;;;4.43;1.52;;;18.50;82.60;;;;;;5069477;28;20658;-81
2021/06/14 06:28:49;;;;;;;6.35;1.30;;;18.60;83.70;;;;;;5074144;28;20547;-81
2021/06/14 06:31:15;;;;;;;4.38;1.33;;;18.70;83.60;;;;;;5060672;28;20052;-81
2021/06/14 06:33:41;;;;;;;3.97;1.35;;;18.80;83.00;;;;;;5069911;28;20032;-82
2021/06/14 06:36:08;;;;;;;3.45;1.42;;;18.90;84.40;;;;;;5083379;28;20024;-82
2021/06/14 06:38:34;;;;;;;5.72;1.50;;;18.90;79.90;;;;;;5076133;28;20368;-82
2021/06/14 06:41:00;;;;;;;2.92;1.10;;;18.80;82.50;;;;;;5069662;28;20017;-82
2021/06/14 06:43:25;;;;;;;2.83;1.10;;;19.00;81.50;;;;;;5052558;28;20029;-84
2021/06/14 06:45:51;;;;;;;2.70;1.30;;;19.00;79.90;;;;;;5052603;28;20025;-83
2021/06/14 06:48:17;;;;;;;5.13;1.50;;;19.20;80.60;;;;;;5074955;28;20404;-80
2021/06/14 06:50:43;;;;;;;4.20;1.35;;;19.10;78.80;;;;;;5081442;28;20029;-80
2021/06/14 06:53:09;;;;;;;3.58;1.50;;;19.30;79.70;;;;;;5086478;28;20036;-81
2021/06/14 06:55:35;;;;;;;4.80;1.30;;;19.50;80.10;;;;;;5079544;28;20078;-81
2021/06/14 06:58:03;;;;;;;4.10;1.30;;;19.60;77.50;;;;;;5087629;28;20024;-81
2021/06/14 07:00:29;;;;;;;3.42;1.40;;;19.70;76.60;;;;;;5072431;28;20533;-81
2021/06/14 07:02:54;;;;;;;4.97;1.30;;;19.80;77.80;;;;;;5080510;28;20028;-81
2021/06/14 07:05:20;;;;;;;5.05;1.45;;;19.90;76.40;;;;;;5097074;28;20536;-81
2021/06/14 07:07:46;;;;;;;5.30;1.30;;;19.90;76.60;;;;;;5070519;28;20025;-81
2021/06/14 07:10:12;;;;;;;4.50;1.42;;;20.00;76.20;;;;;;5056052;28;20028;-81
2021/06/14 07:12:38;;;;;;;2.85;0.95;;;20.20;76.90;;;;;;5054276;28;20029;-82
2021/06/14 07:15:07;;;;;;;5.53;1.52;;;20.20;75.60;;;;;;5057218;28;20025;-80
2021/06/14 07:17:33;;;;;;;4.28;1.38;;;20.20;75.20;;;;;;5070851;28;20020;-80
2021/06/14 07:19:59;;;;;;;4.38;1.20;;;20.20;76.00;;;;;;5098087;28;20028;-81
2021/06/14 07:22:24;;;;;;;3.40;1.15;;;20.20;75.10;;;;;;5097614;28;20034;-81
2021/06/14 07:24:50;;;;;;;3.67;1.30;;;20.40;74.10;;;;;;5074578;28;20033;-82
2021/06/14 07:27:16;;;;;;;3.53;1.02;;;20.40;74.40;;;;;;5080846;22;20048;-87
2021/06/14 07:29:42;;;;;;;4.13;1.20;;;20.40;73.10;;;;;;5071703;28;20028;-87
2021/06/14 07:32:08;;;;;;;5.68;1.40;;;20.40;73.70;;;;;;5071043;28;20031;-86
2021/06/14 07:34:34;;;;;;;4.55;1.48;;;20.60;74.80;;;;;;5071769;28;20100;-87
2021/06/14 07:36:59;;;;;;;3.70;1.20;;;20.80;75.10;;;;;;5069229;28;20111;-87
2021/06/14 07:39:25;;;;;;;4.50;1.27;;;20.70;74.20;;;;;;5077299;28;20729;-87
2021/06/14 07:41:51;;;;;;;4.28;1.00;;;21.00;74.70;;;;;;5088607;28;20091;-86
2021/06/14 07:44:17;;;;;;;5.68;1.60;;;21.30;74.10;;;;;;5091139;28;20028;-83
2021/06/14 07:46:43;;;;;;;4.03;1.20;;;21.30;73.80;;;;;;5095933;28;20024;-84
2021/06/14 07:49:08;;;;;;;4.55;1.17;;;21.30;73.00;;;;;;5095832;28;20024;-85
2021/06/14 07:51:34;;;;;;;2.50;1.10;;;21.50;72.20;;;;;;5092428;28;20032;-84
2021/06/14 07:54:00;;;;;;;4.65;1.52;;;21.60;71.20;;;;;;5075277;28;20063;-84
2021/06/14 07:56:26;;;;;;;4.40;1.50;;;21.80;71.70;;;;;;5076107;28;20048;-83
2021/06/14 07:58:51;;;;;;;3.15;1.38;;;22.00;70.90;;;;;;5086200;28;20020;-86
2021/06/14 08:01:17;;;;;;;3.25;1.38;;;22.20;71.70;;;;;;5090370;28;20027;-84
2021/06/14 08:03:46;;;;;;;3.85;0.98;;;22.30;71.80;;;;;;5089754;28;20024;-85
2021/06/14 08:06:11;;;;;;;4.53;1.20;;;22.50;71.30;;;;;;5092575;28;20024;-84
2021/06/14 08:08:37;;;;;;;4.78;1.40;;;22.60;69.50;;;;;;5088061;28;20033;-83
2021/06/14 08:11:03;;;;;;;4.10;1.10;;;22.60;70.60;;;;;;5072494;28;20028;-84
2021/06/14 08:13:29;;;;;;;5.40;1.38;;;22.70;69.20;;;;;;5079317;28;20032;-85
2021/06/14 08:15:55;;;;;;;3.83;1.38;;;22.70;68.20;;;;;;5094323;28;20499;-83
2021/06/14 08:26:07;;;;;;;4.50;1.35;;;22.70;68.10;;;;;;5076021;28;20083;-84
2021/06/14 08:28:32;;;;;;;4.60;1.42;;;22.90;69.10;;;;;;5087424;28;20368;-85
2021/06/14 08:30:58;;;;;;;4.03;1.10;;;23.00;67.90;;;;;;5094850;28;20086;-85
2021/06/14 08:33:24;;;;;;;5.82;1.10;;;23.20;70.00;;;;;;5091808;28;20046;-84
2021/06/14 08:35:49;;;;;;;2.63;1.42;;;23.50;66.40;;;;;;5078811;28;20020;-84
2021/06/14 08:38:15;;;;;;;5.63;1.17;;;23.70;66.50;;;;;;5074779;28;20429;-86
2021/06/14 08:40:41;;;;;;;3.55;1.30;;;23.90;66.60;;;;;;5078163;28;20036;-86
2021/06/14 08:43:08;;;;;;;4.20;1.30;;;24.00;65.90;;;;;;5075103;28;20033;-84
2021/06/14 08:45:36;;;;;;;5.40;1.08;;;24.20;65.00;;;;;;5088591;28;20040;-86
2021/06/14 08:48:03;;;;;;;3.42;0.93;;;24.40;64.30;;;;;;5074552;28;20070;-86
2021/06/14 08:50:29;;;;;;;2.97;1.05;;;24.20;63.10;;;;;;5073223;28;20032;-86
2021/06/14 08:52:55;;;;;;;5.72;1.17;;;24.50;63.20;;;;;;5087401;28;20028;-85
2021/06/14 08:55:21;;;;;;;2.03;0.90;;;24.60;63.20;;;;;;5086818;28;20480;-86
2021/06/14 08:57:47;;;;;;;5.18;1.52;;;24.80;61.60;;;;;;5088081;28;20048;-85
2021/06/14 09:00:28;;;;;;;4.95;1.02;;;24.90;61.50;;;;;;5075404;28;20025;-85
2021/06/14 09:02:55;;;;;;;2.55;1.10;;;24.90;62.70;;;;;;5074385;28;20033;-86
2021/06/14 09:05:22;;;;;;;2.17;0.90;;;24.90;63.10;;;;;;5091213;28;20031;-85
2021/06/14 09:07:52;;;;;;;4.03;1.23;;;25.10;62.90;;;;;;5073924;28;20044;-85
2021/06/14 09:10:27;;;;;;;3.85;1.25;;;25.30;61.90;;;;;;5088941;28;20017;-85
2021/06/14 09:12:54;;;;;;;4.05;1.10;;;24.80;59.70;;;;;;5075375;28;20033;-85
2021/06/14 09:15:25;;;;;;;4.57;0.98;;;25.10;59.80;;;;;;5073210;28;20024;-86
2021/06/14 09:17:53;;;;;;;;;;;25.50;59.80;;;;;;5079550;28;20520;-85
2021/06/14 09:20:19;;;;;;;2.45;1.00;;;25.60;59.30;;;;;;5084058;28;20261;-85
2021/06/14 09:22:44;;;;;;;2.03;0.80;;;26.00;60.30;;;;;;5094714;28;20442;-85
2021/06/14 09:25:14;;;;;;;2.63;1.02;;;25.90;60.70;;;;;;5093714;28;21068;-85
2021/06/14 09:27:42;;;;;;;3.08;1.20;;;25.70;60.90;;;;;;5090457;28;20039;-85
2021/06/14 09:30:17;;;;;;;2.22;0.80;;;26.00;59.70;;;;;;5088850;28;20025;-85
2021/06/14 09:32:51;;;;;;;2.78;1.00;;;26.10;59.70;;;;;;5076080;28;20032;-85
2021/06/14 09:35:17;;;;;;;3.03;1.08;;;26.30;57.60;;;;;;5096129;28;20027;-86
2021/06/14 09:38:00;;;;;;;3.67;0.98;;;26.30;56.90;;;;;;5092279;28;20441;-85
2021/06/14 09:40:42;;;;;;;4.78;1.20;;;26.40;56.80;;;;;;5076768;28;20025;-85
2021/06/14 09:43:23;;;;;;;3.97;1.23;;;26.50;59.10;;;;;;5089605;28;20028;-85
2021/06/14 09:45:49;;;;;;;3.53;0.90;;;26.80;57.00;;;;;;5095653;28;20028;-86
2021/06/14 09:48:22;;;;;;;4.35;1.00;;;27.00;56.40;;;;;;5088726;28;20035;-85
2021/06/14 09:50:50;;;;;;;3.03;0.85;;;27.10;55.30;;;;;;5089267;28;20046;-86
2021/06/14 09:53:27;;;;;;;4.45;1.27;;;27.20;53.60;;;;;;5073502;28;21101;-87
2021/06/14 09:55:53;;;;;;;3.75;0.82;;;27.40;54.10;;;;;;5089787;28;20107;-85
2021/06/14 09:58:26;;;;;;;6.25;0.77;;;27.60;52.30;;;;;;5097641;28;20029;-85
2021/06/14 10:00:54;;;;;;;3.65;1.00;;;27.60;51.50;;;;;;5072744;28;20021;-85
2021/06/14 10:03:23;;;;;;;3.30;1.10;;;27.70;52.20;;;;;;5075935;28;20024;-85
2021/06/14 10:05:51;;;;;;;3.38;1.00;;;27.90;51.50;;;;;;5073305;28;20511;-85
2021/06/14 10:08:25;;;;;;;1.98;0.85;;;27.80;52.50;;;;;;5071531;28;20419;-84
2021/06/14 10:11:03;;;;;;;3.13;0.80;;;27.80;52.60;;;;;;5073148;28;20028;-85
2021/06/14 10:13:30;;;;;;;2.50;0.75;;;28.00;49.90;;;;;;5089520;28;20036;-85
2021/06/14 10:16:01;;;;;;;2.20;0.57;;;27.90;49.10;;;;;;5080087;28;20017;-85
2021/06/14 10:18:34;;;;;;;2.67;0.68;;;28.10;48.80;;;;;;5091429;28;20016;-84
2021/06/14 10:21:00;;;;;;;3.15;1.00;;;28.10;50.90;;;;;;5091021;28;20112;-85
2021/06/14 10:23:26;;;;;;;2.28;0.80;;;28.10;50.10;;;;;;5089508;28;20031;-85
2021/06/14 10:25:52;;;;;;;6.13;1.10;;;28.30;51.20;;;;;;5091527;28;20148;-85
2021/06/14 10:28:18;;;;;;;2.85;1.15;;;28.50;50.40;;;;;;5094190;28;20487;-85
2021/06/14 10:30:44;;;;;;;2.95;0.80;;;28.40;50.10;;;;;;5076673;28;20032;-84
2021/06/14 10:33:12;;;;;;;2.00;0.70;;;28.10;50.90;;;;;;5093682;28;20146;-85
2021/06/14 10:35:38;;;;;;;3.25;1.00;;;28.20;50.60;;;;;;5094218;28;20028;-85
2021/06/14 10:38:04;;;;;;;2.88;0.68;;;28.00;50.70;;;;;;5090094;28;20028;-84
2021/06/14 10:40:31;;;;;;;3.30;0.85;;;28.20;49.60;;;;;;5075631;28;20019;-85
2021/06/14 10:42:57;;;;;;;4.10;0.73;;;28.50;50.60;;;;;;5091113;28;20027;-84
2021/06/14 10:45:26;;;;;;;1.83;0.70;;;28.30;48.40;;;;;;5080407;28;20032;-85
2021/06/14 10:47:53;;;;;;;2.63;0.65;;;28.70;49.20;;;;;;5091759;28;20649;-85
2021/06/14 10:50:21;;;;;;;5.32;0.70;;;28.60;48.70;;;;;;5089469;28;20020;-84
2021/06/14 10:52:47;;;;;;;3.80;0.80;;;28.60;47.20;;;;;;5077849;28;20024;-85
2021/06/14 10:55:24;;;;;;;3.53;0.70;;;28.50;48.70;;;;;;5072876;28;20108;-85
2021/06/14 10:57:50;;;;;;;3.28;0.70;;;28.60;48.10;;;;;;5077544;28;20040;-86
2021/06/14 11:00:28;;;;;;;2.53;0.75;;;29.10;48.20;;;;;;5074224;28;20017;-86
2021/06/14 11:02:56;;;;;;;2.45;0.77;;;29.40;47.50;;;;;;5088735;28;20558;-86
2021/06/14 11:05:33;;;;;;;2.70;0.68;;;29.60;48.10;;;;;;5081074;28;20396;-86
2021/06/14 11:08:19;;;;;;;2.55;0.88;;;29.70;47.40;;;;;;5074517;28;20028;-86
2021/06/14 11:10:58;;;;;;;2.47;0.80;;;29.90;48.10;;;;;;5073204;28;20071;-86
2021/06/14 11:13:24;;;;;;;1.70;0.60;;;30.00;47.70;;;;;;5072958;28;20035;-86
2021/06/14 11:15:55;;;;;;;6.30;1.00;;;29.80;46.80;;;;;;5088323;28;20111;-86
2021/06/14 11:18:32;;;;;;;2.40;0.70;;;29.60;45.50;;;;;;5089198;28;20021;-86
2021/06/14 11:21:14;;;;;;;3.80;0.90;;;29.70;45.70;;;;;;5088910;28;20449;-86
2021/06/14 11:23:41;;;;;;;2.97;0.80;;;29.70;44.70;;;;;;5072526;28;20037;-86
2021/06/14 11:26:09;;;;;;;1.88;0.60;;;29.90;46.20;;;;;;5072075;28;20029;-86
2021/06/14 11:28:40;;;;;;;3.25;0.70;;;30.20;46.00;;;;;;5074682;28;20024;-85
2021/06/14 11:31:17;;;;;;;;;;;30.10;45.50;;;;;;5093031;28;20074;-86
2021/06/14 11:33:44;;;;;;;2.10;1.10;;;30.20;47.90;;;;;;5090130;28;20577;-86
2021/06/14 11:36:19;;;;;;;3.80;1.00;;;30.50;47.20;;;;;;5086179;28;20012;-86
2021/06/14 11:38:45;;;;;;;2.25;0.77;;;29.80;46.80;;;;;;5086886;28;20020;-85
2021/06/14 11:41:10;;;;;;;2.78;0.70;;;29.70;45.70;;;;;;5091068;28;20023;-86
2021/06/14 11:43:36;;;;;;;3.40;0.98;;;30.10;45.90;;;;;;5091369;28;20020;-86
2021/06/14 11:46:17;;;;;;;2.50;0.70;;;30.40;45.70;;;;;;5088975;28;20420;-86
2021/06/14 11:48:48;;;;;;;2.05;0.70;;;30.70;44.70;;;;;;5090662;28;20043;-85
2021/06/14 11:51:18;;;;;;;;;;;31.00;43.40;;;;;;5091214;28;20035;-85
2021/06/14 11:53:56;;;;;;;2.17;0.70;;;30.90;42.00;;;;;;5083382;28;19977;-86
2021/06/14 11:56:27;;;;;;;2.70;0.60;;;31.20;42.80;;;;;;5091808;28;20016;-86
2021/06/14 11:58:54;;;;;;;2.33;0.75;;;31.20;43.10;;;;;;5090794;28;20035;-86
2021/06/14 12:01:26;;;;;;;2.65;0.85;;;31.40;44.60;;;;;;5088642;28;20054;-86
2021/06/14 12:04:03;;;;;;;2.53;0.68;;;31.20;43.10;;;;;;5089827;28;20036;-86
2021/06/14 12:06:48;;;;;;;2.22;0.80;;;31.20;44.90;;;;;;5088028;28;20418;-86
2021/06/14 12:09:16;;;;;;;1.45;0.60;;;31.20;43.30;;;;;;5089078;28;20091;-85
2021/06/14 12:11:43;;;;;;;4.35;0.80;;;31.30;43.60;;;;;;5075919;28;20032;-85
2021/06/14 12:14:13;;;;;;;3.40;0.80;;;31.30;43.80;;;;;;5085309;28;20496;-85
2021/06/14 12:16:39;;;;;;;3.85;0.80;;;31.40;45.20;;;;;;5084984;28;20024;-86
2021/06/14 12:19:05;;;;;;;4.57;0.77;;;31.50;44.60;;;;;;5087363;28;20024;-85
2021/06/14 12:21:31;;;;;;;1.95;0.70;;;31.80;43.70;;;;;;5087601;28;20032;-85
2021/06/14 12:23:57;;;;;;;2.22;0.80;;;31.70;44.20;;;;;;5087418;28;20551;-85
2021/06/14 12:26:23;;;;;;;1.98;0.65;;;32.00;44.30;;;;;;5084988;28;20040;-85
2021/06/14 12:28:49;;;;;;;2.15;0.80;;;31.90;45.00;;;;;;5085754;28;20024;-85
2021/06/14 12:31:14;;;;;;;2.45;0.70;;;32.10;45.20;;;;;;5072472;28;20072;-86
2021/06/14 12:33:43;;;;;;;3.22;0.75;;;32.20;42.90;;;;;;5088811;28;20483;-86
2021/06/14 12:36:11;;;;;;;3.85;1.05;;;31.90;43.10;;;;;;5089522;28;20051;-86
2021/06/14 12:38:47;;;;;;;3.00;0.90;;;31.90;42.40;;;;;;5087821;28;20066;-86
2021/06/14 12:41:13;;;;;;;2.53;0.60;;;32.00;42.80;;;;;;5082827;28;20023;-85
2021/06/14 12:43:38;;;;;;;2.25;0.70;;;31.90;41.70;;;;;;5083032;28;20015;-85
2021/06/14 12:46:04;;;;;;;1.30;0.50;;;32.30;41.70;;;;;;5082412;28;20124;-85
2021/06/14 12:48:30;;;;;;;2.28;0.70;;;32.80;43.00;;;;;;5078934;28;20016;-86
2021/06/14 12:50:57;;;;;;;1.50;0.50;;;32.50;41.50;;;;;;5085861;28;20423;-85
2021/06/14 12:53:25;;;;;;;2.50;0.73;;;32.60;44.50;;;;;;5085179;28;20111;-86
2021/06/14 12:55:56;;;;;;;2.13;0.80;;;32.60;41.60;;;;;;5086906;28;20016;-85
2021/06/14 12:58:28;;;;;;;2.17;0.60;;;32.50;39.90;;;;;;5085552;28;20012;-86